createdAt,value
2017-08-02T00:01:35.446Z,94.10
2017-08-02T00:04:03.765Z,94.10
2017-08-02T00:06:32.396Z,94.40
2017-08-02T00:09:00.736Z,94.50
2017-08-02T00:11:29.026Z,94.60
2017-08-02T00:13:57.907Z,94.70
2017-08-02T00:16:27.057Z,94.90
2017-08-02T00:18:55.418Z,95.10
2017-08-02T00:21:24.426Z,95.20
2017-08-02T00:23:53.661Z,95.40
2017-08-02T00:26:27.768Z,95.50
2017-08-02T00:28:57.213Z,95.80
2017-08-02T00:31:25.543Z,96.00
2017-08-02T00:33:54.141Z,96.30
2017-08-02T00:36:22.829Z,96.40
2017-08-02T00:38:52.018Z,96.70
2017-08-02T00:41:20.384Z,96.80
2017-08-02T00:43:49.906Z,96.90
2017-08-02T00:46:18.191Z,97.10
2017-08-02T00:48:46.501Z,97.20
2017-08-02T00:51:16.027Z,97.50
2017-08-02T00:53:45.499Z,97.70
2017-08-02T00:56:15.150Z,97.70
2017-08-02T00:58:44.312Z,97.80
2017-08-02T01:01:12.677Z,97.90
2017-08-02T01:03:41.731Z,98.10
2017-08-02T01:06:10.331Z,98.10
2017-08-02T01:08:38.715Z,98.20
2017-08-02T01:11:06.990Z,98.20
2017-08-02T01:13:35.289Z,98.20
2017-08-02T01:16:03.629Z,98.10
2017-08-02T01:18:32.308Z,98.20
2017-08-02T01:21:00.625Z,98.30
2017-08-02T01:23:29.416Z,98.40
2017-08-02T01:25:57.830Z,98.50
2017-08-02T01:28:26.141Z,98.50
2017-08-02T01:30:54.734Z,98.50
2017-08-02T01:33:23.019Z,98.80
2017-08-02T01:35:52.509Z,98.80
2017-08-02T01:38:20.813Z,98.80
2017-08-02T01:40:49.897Z,98.80
2017-08-02T01:43:19.443Z,98.80
2017-08-02T01:45:47.739Z,98.90
2017-08-02T01:48:16.067Z,99.00
2017-08-02T01:50:44.414Z,99.10
2017-08-02T01:53:12.715Z,99.10
2017-08-02T01:55:41.341Z,99.30
2017-08-02T01:58:09.651Z,99.60
2017-08-02T02:00:38.059Z,99.60
2017-08-02T02:03:07.274Z,99.80
2017-08-02T02:05:35.577Z,99.90
2017-08-02T02:08:03.852Z,99.70
2017-08-02T02:10:32.559Z,99.60
2017-08-02T02:13:01.942Z,99.70
2017-08-02T02:15:30.204Z,99.90
2017-08-02T02:17:58.965Z,99.90
2017-08-02T02:20:29.408Z,99.90
2017-08-02T02:22:57.698Z,99.90
2017-08-02T02:25:26.381Z,99.90
2017-08-02T02:27:55.485Z,99.90
2017-08-02T02:30:23.783Z,99.90
2017-08-02T02:32:52.498Z,99.90
2017-08-02T02:35:20.810Z,99.90
2017-08-02T02:37:49.898Z,99.90
2017-08-02T02:40:18.515Z,99.90
2017-08-02T02:42:48.657Z,99.90
2017-08-02T02:45:17.006Z,99.90
2017-08-02T02:47:45.675Z,99.90
2017-08-02T02:50:13.987Z,99.90
2017-08-02T02:52:43.192Z,99.90
2017-08-02T02:55:12.521Z,99.90
2017-08-02T02:57:41.512Z,99.90
2017-08-02T03:00:11.237Z,99.90
2017-08-02T03:02:41.216Z,99.90
2017-08-02T03:05:10.307Z,99.90
2017-08-02T03:07:38.639Z,99.90
2017-08-02T03:10:07.472Z,99.90
2017-08-02T03:12:35.768Z,99.90
2017-08-02T03:15:04.889Z,99.90
2017-08-02T03:17:34.400Z,99.90
2017-08-02T03:20:02.786Z,99.90
2017-08-02T03:22:31.065Z,99.90
2017-08-02T03:25:00.296Z,99.90
2017-08-02T03:27:28.597Z,99.90
2017-08-02T03:29:58.492Z,99.90
2017-08-02T03:32:27.149Z,99.90
2017-08-02T03:34:56.389Z,99.90
2017-08-02T03:37:25.566Z,99.90
2017-08-02T03:39:55.359Z,99.90
2017-08-02T03:42:23.652Z,99.90
2017-08-02T03:44:52.036Z,99.90
2017-08-02T03:47:20.687Z,99.90
2017-08-02T03:49:49.843Z,99.90
2017-08-02T03:52:18.921Z,99.90
2017-08-02T03:54:48.359Z,99.90
2017-08-02T03:57:17.475Z,99.90
2017-08-02T03:59:45.808Z,99.90
2017-08-02T04:02:15.248Z,99.90
2017-08-02T04:04:43.644Z,99.90
2017-08-02T04:07:12.480Z,99.90
2017-08-02T04:09:41.934Z,99.90
2017-08-02T04:12:10.814Z,99.90
2017-08-02T04:14:39.875Z,99.90
2017-08-02T04:17:09.407Z,99.90
2017-08-02T04:19:38.466Z,99.90
2017-08-02T04:22:08.814Z,99.90
2017-08-02T04:24:37.963Z,99.90
2017-08-02T04:27:06.543Z,99.90
2017-08-02T04:29:36.302Z,99.90
2017-08-02T04:32:04.888Z,99.90
2017-08-02T04:34:33.193Z,99.90
2017-08-02T04:37:01.844Z,99.90
2017-08-02T04:39:31.765Z,99.90
2017-08-02T04:42:00.073Z,99.90
2017-08-02T04:44:29.327Z,99.90
2017-08-02T04:46:58.779Z,99.90
2017-08-02T04:49:27.997Z,99.90
2017-08-02T04:51:56.283Z,99.90
2017-08-02T04:54:24.988Z,99.90
2017-08-02T04:56:54.956Z,99.90
2017-08-02T04:59:23.243Z,99.90
2017-08-02T05:01:51.993Z,99.90
2017-08-02T05:04:20.451Z,99.90
2017-08-02T05:06:48.765Z,99.90
2017-08-02T05:09:18.733Z,99.90
2017-08-02T05:11:47.311Z,99.90
2017-08-02T05:14:16.212Z,99.90
2017-08-02T05:16:44.827Z,99.90
2017-08-02T05:19:13.139Z,99.90
2017-08-02T05:21:42.213Z,99.90
2017-08-02T05:24:10.880Z,99.90
2017-08-02T05:26:39.154Z,99.90
2017-08-02T05:29:07.658Z,99.90
2017-08-02T05:31:37.680Z,99.90
2017-08-02T05:34:06.026Z,99.90
2017-08-02T05:36:34.334Z,99.90
2017-08-02T05:39:03.026Z,99.90
2017-08-02T05:41:31.698Z,99.90
2017-08-02T05:43:59.999Z,99.90
2017-08-02T05:46:29.199Z,99.90
2017-08-02T05:48:58.293Z,99.90
2017-08-02T05:51:27.405Z,99.90
2017-08-02T05:53:56.122Z,99.90
2017-08-02T05:56:25.191Z,99.90
2017-08-02T05:58:54.149Z,99.90
2017-08-02T06:01:24.122Z,99.90
2017-08-02T06:03:52.436Z,99.90
2017-08-02T06:06:21.516Z,99.10
2017-08-02T06:08:49.848Z,99.00
2017-08-02T06:11:18.137Z,98.10
2017-08-02T06:13:46.756Z,97.30
2017-08-02T06:16:15.080Z,96.80
2017-08-02T06:18:43.421Z,97.00
2017-08-02T06:21:12.620Z,95.40
2017-08-02T06:23:40.905Z,95.00
2017-08-02T06:26:09.584Z,93.80
2017-08-02T06:28:37.953Z,92.30
2017-08-02T06:31:06.257Z,93.10
2017-08-02T06:33:35.128Z,93.40
2017-08-02T06:36:03.516Z,93.10
2017-08-02T06:38:32.124Z,93.30
2017-08-02T06:41:03.908Z,92.50
2017-08-02T06:43:32.742Z,92.60
2017-08-02T06:46:01.803Z,92.80
2017-08-02T06:48:30.876Z,91.40
2017-08-02T06:50:59.315Z,91.40
2017-08-02T06:53:27.691Z,91.90
2017-08-02T06:55:56.347Z,91.80
2017-08-02T06:58:24.680Z,90.80
2017-08-02T07:00:54.006Z,90.10
2017-08-02T07:03:22.335Z,90.60
2017-08-02T07:05:51.470Z,89.30
2017-08-02T07:08:20.107Z,89.60
2017-08-02T07:10:48.411Z,89.70
2017-08-02T07:13:16.750Z,90.40
2017-08-02T07:15:45.079Z,90.90
2017-08-02T07:18:13.481Z,91.00
2017-08-02T07:20:42.092Z,91.10
2017-08-02T07:23:12.516Z,90.00
2017-08-02T07:25:40.787Z,89.80
2017-08-02T07:28:14.944Z,88.30
2017-08-02T07:30:43.299Z,87.60
2017-08-02T07:33:12.231Z,86.90
2017-08-02T07:35:40.545Z,86.60
2017-08-02T07:38:09.610Z,84.10
2017-08-02T07:40:37.924Z,84.10
2017-08-02T07:43:06.190Z,81.40
2017-08-02T07:45:34.859Z,81.20
2017-08-02T07:48:03.159Z,79.20
2017-08-02T07:50:32.242Z,77.40
2017-08-02T07:53:00.641Z,77.00
2017-08-02T07:55:28.971Z,77.30
2017-08-02T07:57:59.351Z,76.40
2017-08-02T08:00:27.755Z,76.10
2017-08-02T08:02:56.628Z,75.70
2017-08-02T08:05:25.358Z,75.00
2017-08-02T08:07:53.745Z,75.20
2017-08-02T08:10:22.085Z,74.50
2017-08-02T08:12:50.465Z,73.80
2017-08-02T08:15:18.832Z,72.40
2017-08-02T08:17:48.426Z,71.90
2017-08-02T08:20:18.363Z,71.70
2017-08-02T08:22:46.707Z,70.10
2017-08-02T08:25:15.003Z,68.60
2017-08-02T08:27:43.388Z,64.90
2017-08-02T08:30:12.003Z,65.20
2017-08-02T08:32:40.369Z,65.80
2017-08-02T08:35:08.694Z,66.50
2017-08-02T08:37:38.435Z,67.90
2017-08-02T08:40:07.530Z,66.20
2017-08-02T08:42:37.018Z,66.90
2017-08-02T08:45:06.972Z,64.40
2017-08-02T08:47:37.157Z,64.30
2017-08-02T08:50:05.491Z,64.30
2017-08-02T08:52:33.793Z,62.90
2017-08-02T08:55:02.425Z,63.40
2017-08-02T08:57:32.467Z,65.20
2017-08-02T09:00:00.805Z,64.70
2017-08-02T09:02:29.135Z,63.80
2017-08-02T09:04:57.485Z,64.70
2017-08-02T09:07:26.317Z,62.00
2017-08-02T09:09:54.688Z,62.50
2017-08-02T09:12:23.158Z,62.40
2017-08-02T09:14:51.489Z,61.80
2017-08-02T09:17:20.586Z,62.40
2017-08-02T09:19:48.923Z,62.10
2017-08-02T09:22:18.057Z,60.80
2017-08-02T09:24:46.809Z,60.00
2017-08-02T09:27:15.203Z,60.40
2017-08-02T09:29:46.105Z,60.30
2017-08-02T09:32:14.490Z,61.20
2017-08-02T09:34:43.702Z,60.50
2017-08-02T09:37:12.318Z,60.30
2017-08-02T09:39:41.945Z,60.10
2017-08-02T09:42:11.510Z,59.90
2017-08-02T09:44:40.401Z,61.70
2017-08-02T09:47:09.263Z,60.60
2017-08-02T09:49:39.208Z,61.00
2017-08-02T09:52:07.535Z,59.90
2017-08-02T09:54:37.495Z,59.90
2017-08-02T09:57:06.745Z,59.70
2017-08-02T09:59:37.349Z,57.50
2017-08-02T10:02:05.728Z,57.80
2017-08-02T10:04:34.397Z,58.30
2017-08-02T10:07:03.102Z,57.50
2017-08-02T10:09:32.648Z,56.90
2017-08-02T10:12:01.414Z,57.50
2017-08-02T10:14:30.262Z,56.60
2017-08-02T10:16:58.742Z,56.50
2017-08-02T10:19:27.177Z,55.20
2017-08-02T10:21:56.916Z,93.30
2017-08-02T10:24:26.049Z,93.10
2017-08-02T10:26:54.353Z,92.00
2017-08-02T10:29:23.362Z,92.50
2017-08-02T10:31:52.486Z,91.20
2017-08-02T10:34:22.819Z,91.10
2017-08-02T10:41:50.478Z,93.00
2017-08-02T10:44:18.921Z,55.20
2017-08-02T10:46:47.240Z,51.70
2017-08-02T10:49:15.541Z,52.00
2017-08-02T10:51:44.160Z,53.20
2017-08-02T10:54:12.537Z,54.30
2017-08-02T10:56:40.944Z,55.10
2017-08-02T10:59:09.255Z,55.20
2017-08-02T11:01:38.300Z,55.50
2017-08-02T11:04:07.354Z,55.50
2017-08-02T11:06:35.627Z,54.70
2017-08-02T11:11:33.799Z,88.50
2017-08-02T11:14:02.071Z,49.50
2017-08-02T11:16:31.020Z,48.20
2017-08-02T11:18:59.293Z,47.00
2017-08-02T11:21:27.932Z,76.10
2017-08-02T11:23:56.208Z,78.80
2017-08-02T11:26:24.544Z,80.40
2017-08-02T11:31:22.930Z,50.50
2017-08-02T11:33:52.251Z,84.70
2017-08-02T11:36:20.741Z,84.10
2017-08-02T11:38:49.044Z,47.60
2017-08-02T11:41:17.325Z,45.20
2017-08-02T11:43:46.510Z,42.70
2017-08-02T11:46:16.712Z,37.60
2017-08-02T11:48:45.908Z,38.00
2017-08-02T11:51:15.150Z,35.80
2017-08-02T11:53:43.825Z,34.30
2017-08-02T11:56:12.889Z,35.20
2017-08-02T11:58:41.352Z,35.10
2017-08-02T12:01:10.462Z,35.40
2017-08-02T12:03:38.743Z,35.20
2017-08-02T12:06:08.051Z,33.40
2017-08-02T12:08:36.357Z,34.40
2017-08-02T12:11:07.732Z,35.80
2017-08-02T12:13:36.039Z,35.60
2017-08-02T12:16:04.769Z,38.70
2017-08-02T12:18:33.094Z,40.80
2017-08-02T12:21:01.432Z,43.50
2017-08-02T12:23:30.021Z,43.90
2017-08-02T12:25:58.542Z,68.10
2017-08-02T12:28:31.014Z,44.20
2017-08-02T12:30:59.652Z,45.80
2017-08-02T12:33:29.002Z,46.80
2017-08-02T12:35:57.307Z,47.70
2017-08-02T12:38:25.912Z,49.80
2017-08-02T12:40:54.254Z,50.00
2017-08-02T12:43:22.618Z,50.50
2017-08-02T12:45:51.510Z,50.00
2017-08-02T12:48:19.830Z,50.10
2017-08-02T12:50:48.141Z,49.70
2017-08-02T12:53:16.823Z,49.20
2017-08-02T12:55:45.177Z,50.00
2017-08-02T12:58:14.246Z,49.20
2017-08-02T13:00:43.151Z,50.00
2017-08-02T13:03:11.622Z,50.90
2017-08-02T13:05:39.952Z,50.50
2017-08-02T13:08:08.568Z,51.10
2017-08-02T13:10:37.252Z,51.00
2017-08-02T13:13:05.583Z,50.80
2017-08-02T13:15:34.503Z,50.00
2017-08-02T13:18:03.541Z,49.90
2017-08-02T13:20:31.990Z,50.30
2017-08-02T13:23:01.349Z,50.00
2017-08-02T13:25:29.628Z,50.00
2017-08-02T13:27:58.011Z,49.30
2017-08-02T13:30:26.633Z,48.10
2017-08-02T13:32:54.951Z,48.30
2017-08-02T13:35:23.343Z,48.00
2017-08-02T13:37:53.012Z,48.80
2017-08-02T13:40:22.078Z,49.30
2017-08-02T13:42:50.410Z,49.30
2017-08-02T13:47:49.480Z,49.10
2017-08-02T13:52:47.745Z,55.10
2017-08-02T13:55:16.116Z,43.00
2017-08-02T13:57:44.456Z,42.30
2017-08-02T14:00:12.833Z,41.30
2017-08-02T14:02:42.233Z,41.70
2017-08-02T14:05:11.341Z,42.10
2017-08-02T14:07:39.676Z,52.00
2017-08-02T14:10:09.506Z,47.60
2017-08-02T14:12:38.080Z,46.20
2017-08-02T14:15:07.132Z,33.30
2017-08-02T14:17:35.736Z,33.20
2017-08-02T14:20:04.820Z,32.60
2017-08-02T14:22:33.151Z,32.60
2017-08-02T14:25:01.452Z,30.20
2017-08-02T14:27:30.105Z,37.10
2017-08-02T14:29:58.772Z,29.10
2017-08-02T14:32:27.159Z,32.10
2017-08-02T14:34:56.616Z,27.60
2017-08-02T14:37:25.856Z,28.00
2017-08-02T14:39:54.669Z,26.60
2017-08-02T14:42:23.137Z,26.60
2017-08-02T14:44:51.452Z,26.40
2017-08-02T14:47:20.028Z,26.70
2017-08-02T14:49:49.206Z,27.00
2017-08-02T14:52:18.306Z,28.30
2017-08-02T14:57:17.053Z,29.00
2017-08-02T14:59:46.300Z,27.40
2017-08-02T15:02:14.760Z,27.30
2017-08-02T15:04:43.393Z,28.20
2017-08-02T15:07:11.694Z,27.50
2017-08-02T15:09:40.005Z,28.60
2017-08-02T15:12:08.317Z,28.40
2017-08-02T15:14:37.418Z,26.40
2017-08-02T15:17:07.159Z,23.80
2017-08-02T15:19:36.272Z,25.20
2017-08-02T15:22:04.667Z,25.20
2017-08-02T15:24:33.756Z,24.10
2017-08-02T15:27:02.073Z,24.00
2017-08-02T15:29:30.444Z,24.60
2017-08-02T15:32:03.347Z,26.50
2017-08-02T15:34:31.667Z,26.50
2017-08-02T15:37:01.075Z,25.20
2017-08-02T15:39:31.103Z,24.60
2017-08-02T15:41:59.695Z,24.90
2017-08-02T15:44:30.219Z,24.70
2017-08-02T15:46:59.426Z,24.40
2017-08-02T15:49:29.047Z,24.40
2017-08-02T15:51:59.760Z,25.50
2017-08-02T15:54:28.069Z,25.40
2017-08-02T15:56:56.366Z,25.70
2017-08-02T15:59:25.487Z,26.50
2017-08-02T16:01:53.793Z,26.40
2017-08-02T16:04:22.798Z,27.70
2017-08-02T16:06:51.076Z,29.00
2017-08-02T16:09:19.979Z,29.60
2017-08-02T16:11:48.289Z,31.00
2017-08-02T16:14:16.911Z,32.40
2017-08-02T16:16:45.962Z,34.20
2017-08-02T16:19:15.028Z,34.10
2017-08-02T16:21:43.790Z,34.30
2017-08-02T16:24:12.110Z,34.00
2017-08-02T16:26:41.470Z,34.30
2017-08-02T16:29:14.246Z,34.90
2017-08-02T16:31:42.810Z,34.90
2017-08-02T16:34:11.102Z,35.30
2017-08-02T16:36:39.607Z,36.30
2017-08-02T16:39:07.946Z,37.00
2017-08-02T16:41:36.669Z,37.70
2017-08-02T16:44:06.700Z,38.60
2017-08-02T16:46:36.955Z,38.90
2017-08-02T16:49:05.299Z,38.90
2017-08-02T16:51:35.791Z,39.00
2017-08-02T16:54:04.905Z,39.10
2017-08-02T16:56:33.513Z,41.30
2017-08-02T16:59:03.635Z,40.80
2017-08-02T17:01:32.475Z,42.60
2017-08-02T17:04:00.756Z,42.50
2017-08-02T17:06:29.040Z,43.10
2017-08-02T17:08:57.378Z,43.30
2017-08-02T17:11:25.684Z,44.10
2017-08-02T17:13:54.346Z,44.60
2017-08-02T17:16:22.659Z,46.70
2017-08-02T17:18:51.684Z,48.90
2017-08-02T17:21:21.246Z,48.90
2017-08-02T17:23:50.337Z,50.10
2017-08-02T17:26:18.603Z,49.70
2017-08-02T17:28:46.968Z,50.10
2017-08-02T17:31:16.198Z,50.50
2017-08-02T17:33:44.523Z,51.00
2017-08-02T17:36:13.554Z,51.90
2017-08-02T17:38:42.189Z,51.90
2017-08-02T17:41:11.276Z,53.50
2017-08-02T17:43:39.633Z,52.80
2017-08-02T17:46:08.241Z,53.30
2017-08-02T17:48:36.602Z,53.80
2017-08-02T17:51:05.317Z,54.00
2017-08-02T17:53:33.886Z,54.60
2017-08-02T17:56:02.197Z,54.90
2017-08-02T17:58:31.235Z,55.50
2017-08-02T18:00:59.882Z,56.40
2017-08-02T18:03:28.206Z,55.70
2017-08-02T18:05:56.517Z,55.40
2017-08-02T18:08:25.095Z,55.00
2017-08-02T18:10:53.404Z,55.40
2017-08-02T18:13:21.718Z,55.60
2017-08-02T18:15:51.209Z,58.00
2017-08-02T18:18:19.515Z,57.90
2017-08-02T18:20:47.783Z,60.00
2017-08-02T18:23:17.225Z,73.40
2017-08-02T18:25:46.191Z,73.30
2017-08-02T18:28:14.511Z,72.60
2017-08-02T18:30:43.105Z,76.20
2017-08-02T18:33:11.396Z,77.90
2017-08-02T18:35:39.709Z,79.30
2017-08-02T18:38:08.292Z,79.50
2017-08-02T18:40:36.668Z,81.00
2017-08-02T18:43:05.096Z,80.50
2017-08-02T18:45:34.555Z,86.10
2017-08-02T18:48:03.738Z,86.00
2017-08-02T18:50:32.050Z,90.00
2017-08-02T18:53:00.607Z,88.70
2017-08-02T18:55:28.888Z,89.10
2017-08-02T18:57:58.137Z,84.80
2017-08-02T19:00:26.871Z,84.70
2017-08-02T19:02:55.181Z,84.70
2017-08-02T19:05:23.496Z,85.80
2017-08-02T19:07:52.289Z,85.10
2017-08-02T19:10:20.636Z,82.60
2017-08-02T19:12:48.977Z,82.40
2017-08-02T19:15:17.723Z,83.40
2017-08-02T19:17:46.054Z,84.80
2017-08-02T19:20:15.081Z,87.10
2017-08-02T19:22:43.839Z,86.20
2017-08-02T19:25:12.918Z,87.30
2017-08-02T19:27:42.214Z,86.30
2017-08-02T19:30:11.537Z,87.50
2017-08-02T19:32:40.635Z,87.20
2017-08-02T19:35:09.002Z,86.20
2017-08-02T19:37:38.108Z,87.10
2017-08-02T19:40:06.927Z,88.70
2017-08-02T19:42:35.267Z,90.70
2017-08-02T19:45:03.926Z,91.10
2017-08-02T19:47:32.824Z,90.90
2017-08-02T19:50:01.124Z,90.60
2017-08-02T19:52:29.991Z,90.10
2017-08-02T19:54:58.262Z,89.10
2017-08-02T19:57:26.893Z,88.70
2017-08-02T19:59:55.498Z,89.20
2017-08-02T20:02:24.411Z,88.30
2017-08-02T20:04:53.533Z,90.50
2017-08-02T20:07:22.908Z,89.60
2017-08-02T20:09:53.036Z,89.60
2017-08-02T20:12:21.868Z,90.50
2017-08-02T20:14:50.597Z,89.50
2017-08-02T20:17:18.924Z,87.80
2017-08-02T20:19:48.172Z,90.00
2017-08-02T20:22:16.806Z,90.00
2017-08-02T20:24:45.111Z,90.00
2017-08-02T20:27:13.409Z,89.10
2017-08-02T20:29:44.792Z,88.40
2017-08-02T20:32:13.809Z,89.30
2017-08-02T20:34:42.131Z,89.40
2017-08-02T20:37:11.385Z,89.30
2017-08-02T20:39:39.949Z,88.90
2017-08-02T20:42:08.287Z,87.60
2017-08-02T20:44:37.797Z,89.50
2017-08-02T20:47:06.962Z,90.00
2017-08-02T20:49:35.319Z,90.00
2017-08-02T20:52:03.629Z,88.80
2017-08-02T20:54:31.933Z,88.20
2017-08-02T20:57:01.064Z,88.50
2017-08-02T20:59:29.341Z,88.40
2017-08-02T21:01:58.287Z,87.70
2017-08-02T21:04:27.505Z,86.70
2017-08-02T21:06:56.184Z,85.70
2017-08-02T21:09:24.569Z,85.30
2017-08-02T21:11:52.969Z,85.10
2017-08-02T21:14:21.651Z,86.20
2017-08-02T21:16:49.940Z,86.60
2017-08-02T21:19:19.427Z,87.20
2017-08-02T21:21:49.071Z,86.80
2017-08-02T21:24:18.290Z,85.90
2017-08-02T21:26:48.019Z,85.10
2017-08-02T21:29:16.441Z,85.10
2017-08-02T21:31:44.736Z,85.30
2017-08-02T21:34:13.842Z,84.10
2017-08-02T21:36:42.129Z,84.40
2017-08-02T21:39:10.487Z,83.90
2017-08-02T21:41:38.783Z,84.20
2017-08-02T21:44:08.020Z,83.60
2017-08-02T21:46:36.306Z,83.90
2017-08-02T21:49:05.017Z,83.70
2017-08-02T21:51:33.292Z,83.50
2017-08-02T21:54:01.639Z,84.20
2017-08-02T21:56:31.703Z,84.10
2017-08-02T21:58:59.980Z,84.00
2017-08-02T22:01:33.503Z,84.10
2017-08-02T22:04:01.799Z,83.80
2017-08-02T22:06:31.002Z,83.40
2017-08-02T22:08:59.354Z,84.50
2017-08-02T22:11:28.336Z,83.50
2017-08-02T22:13:57.615Z,83.40
2017-08-02T22:16:26.001Z,85.50
2017-08-02T22:18:55.403Z,90.60
2017-08-02T22:21:23.707Z,90.60
2017-08-02T22:23:52.021Z,89.80
2017-08-02T22:26:20.343Z,91.90
2017-08-02T22:28:49.247Z,92.00
2017-08-02T22:31:18.351Z,91.80
2017-08-02T22:33:47.409Z,90.80
2017-08-02T22:36:15.743Z,90.80
2017-08-02T22:38:44.047Z,91.00
2017-08-02T22:41:12.392Z,89.70
2017-08-02T22:43:41.324Z,90.60
2017-08-02T22:46:09.648Z,91.50
2017-08-02T22:48:38.256Z,91.00
2017-08-02T22:51:06.911Z,91.10
2017-08-02T22:53:35.231Z,90.50
2017-08-02T22:56:04.279Z,89.40
2017-08-02T22:58:32.600Z,89.30
2017-08-02T23:01:01.219Z,85.60
2017-08-02T23:03:30.494Z,86.10
2017-08-02T23:05:58.789Z,86.20
2017-08-02T23:08:28.780Z,85.80
2017-08-02T23:10:57.129Z,85.70
2017-08-02T23:13:25.453Z,87.30
2017-08-02T23:15:54.153Z,85.20
2017-08-02T23:18:22.459Z,85.10
2017-08-02T23:20:50.752Z,86.70
2017-08-02T23:23:19.178Z,87.60
2017-08-02T23:25:48.052Z,88.90
2017-08-02T23:28:16.766Z,89.10
2017-08-02T23:30:45.763Z,90.10
2017-08-02T23:33:14.086Z,91.10
2017-08-02T23:35:42.429Z,90.00
2017-08-02T23:38:10.750Z,90.00
2017-08-02T23:40:39.431Z,89.60
2017-08-02T23:43:08.525Z,91.00
2017-08-02T23:45:37.640Z,91.50
2017-08-02T23:48:07.191Z,91.70
2017-08-02T23:50:35.504Z,91.70
2017-08-02T23:53:03.853Z,91.60
2017-08-02T23:55:32.839Z,92.30
2017-08-02T23:58:01.431Z,92.20
